Rodney, IA (51051)

9:14 PM CST on February 05, 2016 (GMT -0600)
The Danbury Review | | Change Station
CLOSE
Current Station
Personal Weather Station
Location: Danbury, IA
Elevation: 1162 ft
Nearby Weather Stations

Elev 1162 ft 42.24 °N, 95.72 °W | Updated 4 minutes ago

Overcast
Overcast
27.5 °F
Feels Like 28 °F
N
0.0
Wind Variable Wind from South
Gusts 0.0 mph

Today
High -- | Low -- °F
--% Chance of Precip.
Yesterday
High -- | Low -- °F
Precip. -- in
Pressure 30.28 in
Visibility 5.0 miles
Clouds Few 1900 ft
Mostly Cloudy 2500 ft
Overcast 3400 ft
Windchill 28 °F
Dew Point 25 °F
Humidity 92%
Rainfall 0.00 in
Snow Depth Not available.
7:33 AM 5:42 PM
Waning Crescent, 8% visible
METAR KSUX 060252Z 00000KT 5SM BR FEW019 BKN025 OVC034 M02/M04 A3023 RMK AO2 SLP254 T10171039 53008
Pressure 30.28 in
Visibility 5.0 miles
Clouds Few 1900 ft
Mostly Cloudy 2500 ft
Overcast 3400 ft
Windchill 28 °F
Dew Point 25 °F
Humidity 92%
Rainfall 0.00 in
Snow Depth Not available.
7:33 AM 5:42 PM
Waning Crescent, 8% visible
METAR KSUX 060252Z 00000KT 5SM BR FEW019 BKN025 OVC034 M02/M04 A3023 RMK AO2 SLP254 T10171039 53008

10-Day Weather Forecast

Almanac

Astronomy

Feb. 05, 2016 Rise Set
Actual Time
Civil Twilight
Nautical Twilight
Astronomical Twilight
Moon
Length of Visible Light
Length of Day
Tomorrow will be .
, % of the Moon is Illuminated

Today's Extremes

State Highs State Lows

Community

WunderPhotos

Upload Photos

1,890,915 photos uploaded!

WunderBlog® & News

Nearby

Air Quality

  Air Quality AQ Index Pollutant
Not available.

Snow Depth

Station Depth Elevation

Earthquake Activity

City Distance Mag. Time & Date
Minimum magnitude displayed is 2.5.

Coastal Water Temperatures

Place Temperature

Stations

Nearby Weather Stations

Station Location Temp. Windchill Dew Point Humidity Wind Precip. Elev Updated Type
                   

Watches & Warnings

There are currently no watches in effect.